createdAt,value
2022-08-20T00:02:15.801Z,19.20
2022-08-20T00:04:44.602Z,19.20
2022-08-20T00:07:13.227Z,19.10
2022-08-20T00:09:43.090Z,19.10
2022-08-20T00:12:13.309Z,19.10
2022-08-20T00:14:42.169Z,19.00
2022-08-20T00:17:10.288Z,19.00
2022-08-20T00:19:38.589Z,19.00
2022-08-20T00:22:07.093Z,19.10
2022-08-20T00:24:35.694Z,19.40
2022-08-20T00:27:05.744Z,19.50
2022-08-20T00:29:34.119Z,19.80
2022-08-20T00:32:02.532Z,19.80
2022-08-20T00:34:30.801Z,19.90
2022-08-20T00:36:59.061Z,20.00
2022-08-20T00:39:27.653Z,20.20
2022-08-20T00:41:56.023Z,20.20
2022-08-20T00:44:25.861Z,20.30
2022-08-20T00:46:55.014Z,20.30
2022-08-20T00:49:26.501Z,20.30
2022-08-20T00:51:58.738Z,20.20
2022-08-20T00:54:31.103Z,20.30
2022-08-20T00:57:03.631Z,20.20
2022-08-20T00:59:35.531Z,20.30
2022-08-20T01:02:07.735Z,20.30
2022-08-20T01:04:37.125Z,20.20
2022-08-20T01:07:06.941Z,20.20
2022-08-20T01:09:57.616Z,20.30
2022-08-20T01:12:25.254Z,20.20
2022-08-20T01:14:56.089Z,20.20
2022-08-20T01:17:28.075Z,20.20
2022-08-20T01:20:00.397Z,20.20
2022-08-20T01:22:53.358Z,20.20
2022-08-20T01:25:29.399Z,20.10
2022-08-20T01:28:00.086Z,20.10
2022-08-20T01:30:29.881Z,20.10
2022-08-20T01:32:58.322Z,20.00
2022-08-20T01:35:29.411Z,20.00
2022-08-20T01:37:57.850Z,20.00
2022-08-20T01:40:40.527Z,20.00
2022-08-20T01:43:10.464Z,20.00
2022-08-20T01:45:41.418Z,20.00
2022-08-20T01:48:09.929Z,20.00
2022-08-20T01:50:45.898Z,20.00
2022-08-20T01:53:18.910Z,19.90
2022-08-20T01:55:47.193Z,19.80
2022-08-20T01:58:16.744Z,19.80
2022-08-20T02:00:45.199Z,19.70
2022-08-20T02:03:13.389Z,19.70
2022-08-20T02:05:42.077Z,19.70
2022-08-20T02:08:10.497Z,19.60
2022-08-20T02:10:38.902Z,19.60
2022-08-20T02:13:10.010Z,19.60
2022-08-20T02:15:42.919Z,19.50
2022-08-20T02:18:16.906Z,19.60
2022-08-20T02:20:45.971Z,19.50
2022-08-20T02:23:15.632Z,19.50
2022-08-20T02:25:47.329Z,19.50
2022-08-20T02:28:19.720Z,19.50
2022-08-20T02:30:52.453Z,19.50
2022-08-20T02:33:24.220Z,19.60
2022-08-20T02:35:53.847Z,19.60
2022-08-20T02:38:22.180Z,19.60
2022-08-20T02:40:50.668Z,19.80
2022-08-20T02:43:20.423Z,19.70
2022-08-20T02:45:50.197Z,19.70
2022-08-20T02:48:20.970Z,19.80
2022-08-20T02:50:51.742Z,19.70
2022-08-20T02:53:21.234Z,19.70
2022-08-20T02:55:49.409Z,19.70
2022-08-20T02:58:18.283Z,19.80
2022-08-20T03:00:46.725Z,19.80
2022-08-20T03:03:20.302Z,19.80
2022-08-20T03:05:48.617Z,19.80
2022-08-20T03:08:17.864Z,19.80
2022-08-20T03:10:47.757Z,19.80
2022-08-20T03:13:17.193Z,19.90
2022-08-20T03:15:48.515Z,19.90
2022-08-20T03:18:19.648Z,20.00
2022-08-20T03:20:52.116Z,19.90
2022-08-20T03:23:22.276Z,19.90
2022-08-20T03:25:50.870Z,19.90
2022-08-20T03:28:20.099Z,19.90
2022-08-20T03:30:48.443Z,20.00
2022-08-20T03:33:20.228Z,19.90
2022-08-20T03:35:48.793Z,19.90
2022-08-20T03:38:21.548Z,19.90
2022-08-20T03:41:01.125Z,19.90
2022-08-20T03:43:29.673Z,19.90
2022-08-20T03:45:58.008Z,19.90
2022-08-20T03:48:27.618Z,19.90
2022-08-20T03:50:55.819Z,19.90
2022-08-20T03:53:24.242Z,19.90
2022-08-20T03:56:00.477Z,19.90
2022-08-20T03:58:36.007Z,19.90
2022-08-20T04:01:07.698Z,19.90
2022-08-20T04:03:58.939Z,19.80
2022-08-20T04:06:27.793Z,19.80
2022-08-20T04:08:56.148Z,19.80
2022-08-20T04:11:24.840Z,19.70
2022-08-20T04:13:53.496Z,19.70
2022-08-20T04:16:22.731Z,19.60
2022-08-20T04:19:01.985Z,19.70
2022-08-20T04:21:33.577Z,19.70
2022-08-20T04:24:03.550Z,19.70
2022-08-20T04:26:32.535Z,19.60
2022-08-20T04:29:00.837Z,19.60
2022-08-20T04:31:33.758Z,19.60
2022-08-20T04:34:02.413Z,19.50
2022-08-20T04:36:32.217Z,19.50
2022-08-20T04:39:00.617Z,19.40
2022-08-20T04:41:29.279Z,19.30
2022-08-20T04:43:58.572Z,19.20
2022-08-20T04:46:28.875Z,19.10
2022-08-20T04:48:58.146Z,19.00
2022-08-20T04:51:27.110Z,19.00
2022-08-20T04:53:58.139Z,18.80
2022-08-20T04:56:28.471Z,18.80
2022-08-20T04:58:58.944Z,18.70
2022-08-20T05:01:27.576Z,18.60
2022-08-20T05:03:57.588Z,18.50
2022-08-20T05:06:28.591Z,18.50
2022-08-20T05:09:00.180Z,18.50
2022-08-20T05:11:35.391Z,18.40
2022-08-20T05:14:08.784Z,18.30
2022-08-20T05:16:41.025Z,18.30
2022-08-20T05:19:11.635Z,18.20
2022-08-20T05:21:40.147Z,18.10
2022-08-20T05:24:11.636Z,18.10
2022-08-20T05:26:39.930Z,18.10
2022-08-20T05:29:08.404Z,18.00
2022-08-20T05:31:38.449Z,18.10
2022-08-20T05:34:10.372Z,18.10
2022-08-20T05:36:40.157Z,18.00
2022-08-20T05:39:10.315Z,18.00
2022-08-20T05:41:39.056Z,17.90
2022-08-20T05:44:10.696Z,17.90
2022-08-20T05:46:40.917Z,18.00
2022-08-20T05:49:09.461Z,18.20
2022-08-20T05:51:38.270Z,18.20
2022-08-20T05:54:07.264Z,18.20
2022-08-20T05:56:37.730Z,18.30
2022-08-20T05:59:10.186Z,18.30
2022-08-20T06:01:40.114Z,18.40
2022-08-20T06:04:28.485Z,18.40
2022-08-20T06:07:02.730Z,18.50
2022-08-20T06:09:32.774Z,18.60
2022-08-20T06:12:06.094Z,18.60
2022-08-20T06:14:35.562Z,18.70
2022-08-20T06:17:05.680Z,18.80
2022-08-20T06:19:34.885Z,18.80
2022-08-20T06:22:18.151Z,18.90
2022-08-20T06:24:49.472Z,19.00
2022-08-20T06:27:19.498Z,19.00
2022-08-20T06:29:54.383Z,19.10
2022-08-20T06:32:28.820Z,19.20
2022-08-20T06:35:03.153Z,19.20
2022-08-20T06:37:33.966Z,19.30
2022-08-20T06:40:06.657Z,19.40
2022-08-20T06:42:37.283Z,19.50
2022-08-20T06:45:06.107Z,19.80
2022-08-20T06:47:35.333Z,20.10
2022-08-20T06:50:03.618Z,19.90
2022-08-20T06:52:52.856Z,20.00
2022-08-20T06:55:21.330Z,20.30
2022-08-20T06:57:59.010Z,20.40
2022-08-20T07:00:28.747Z,20.10
2022-08-20T07:03:00.491Z,20.20
2022-08-20T07:05:29.294Z,20.10
2022-08-20T07:07:57.857Z,20.30
2022-08-20T07:10:26.674Z,20.40
2022-08-20T07:12:56.668Z,20.40
2022-08-20T07:15:26.986Z,20.30
2022-08-20T07:18:01.735Z,20.20
2022-08-20T07:20:31.700Z,20.10
2022-08-20T07:23:00.664Z,20.20
2022-08-20T07:25:29.385Z,20.40
2022-08-20T07:28:03.527Z,20.40
2022-08-20T07:30:57.980Z,20.30
2022-08-20T07:33:28.177Z,20.10
2022-08-20T07:35:57.011Z,20.20
2022-08-20T07:38:26.333Z,20.50
2022-08-20T07:40:56.236Z,21.10
2022-08-20T07:43:26.100Z,21.80
2022-08-20T07:45:57.503Z,21.20
2022-08-20T07:48:31.668Z,21.20
2022-08-20T07:51:03.430Z,21.50
2022-08-20T07:53:35.929Z,21.10
2022-08-20T07:56:06.548Z,21.00
2022-08-20T07:58:38.320Z,21.60
2022-08-20T08:01:07.257Z,21.50
2022-08-20T08:03:40.832Z,21.80
2022-08-20T08:06:29.184Z,21.40
2022-08-20T08:09:02.965Z,21.30
2022-08-20T08:11:35.113Z,21.10
2022-08-20T08:14:08.183Z,21.10
2022-08-20T08:16:37.358Z,21.40
2022-08-20T08:19:09.918Z,21.40
2022-08-20T08:21:39.035Z,21.10
2022-08-20T08:24:08.310Z,21.00
2022-08-20T08:26:36.742Z,21.50
2022-08-20T08:29:07.660Z,22.00
2022-08-20T08:31:36.095Z,22.20
2022-08-20T08:34:04.458Z,22.00
2022-08-20T08:36:32.746Z,22.40
2022-08-20T08:39:01.016Z,22.00
2022-08-20T08:41:32.468Z,22.00
2022-08-20T08:44:08.695Z,21.80
2022-08-20T08:46:41.767Z,22.30
2022-08-20T08:49:13.416Z,22.00
2022-08-20T08:51:46.368Z,22.70
2022-08-20T08:54:17.795Z,22.70
2022-08-20T08:56:50.153Z,21.80
2022-08-20T08:59:22.396Z,21.60
2022-08-20T09:01:56.932Z,22.30
2022-08-20T09:04:31.757Z,21.80
2022-08-20T09:07:02.691Z,22.70
2022-08-20T09:09:33.949Z,22.30
2022-08-20T09:12:05.874Z,21.90
2022-08-20T09:14:35.913Z,22.70
2022-08-20T09:17:04.644Z,23.00
2022-08-20T09:19:32.962Z,21.80
2022-08-20T09:22:07.481Z,21.80
2022-08-20T09:24:36.043Z,21.80
2022-08-20T09:27:04.482Z,22.30
2022-08-20T09:29:34.232Z,22.30
2022-08-20T09:32:06.565Z,22.80
2022-08-20T09:34:37.778Z,23.10
2022-08-20T09:37:06.489Z,23.30
2022-08-20T09:39:34.775Z,23.10
2022-08-20T09:42:11.207Z,23.00
2022-08-20T09:44:41.679Z,22.60
2022-08-20T09:47:10.518Z,23.00
2022-08-20T09:49:39.119Z,23.40
2022-08-20T09:52:09.774Z,22.70
2022-08-20T09:54:42.312Z,22.10
2022-08-20T09:57:16.494Z,22.20
2022-08-20T09:59:49.136Z,22.70
2022-08-20T10:02:17.323Z,23.20
2022-08-20T10:04:46.101Z,22.70
2022-08-20T10:07:16.053Z,22.00
2022-08-20T10:09:44.668Z,21.90
2022-08-20T10:12:13.356Z,22.40
2022-08-20T10:14:42.063Z,22.80
2022-08-20T10:17:11.692Z,22.10
2022-08-20T10:19:40.130Z,22.60
2022-08-20T10:22:08.446Z,22.70
2022-08-20T10:24:37.249Z,23.10
2022-08-20T10:27:06.215Z,22.60
2022-08-20T10:29:34.549Z,21.80
2022-08-20T10:32:12.385Z,22.00
2022-08-20T10:34:42.236Z,22.40
2022-08-20T10:37:11.395Z,22.50
2022-08-20T10:39:39.856Z,22.60
2022-08-20T10:42:08.237Z,22.60
2022-08-20T10:44:36.687Z,22.60
2022-08-20T10:47:18.022Z,22.50
2022-08-20T10:49:46.426Z,22.90
2022-08-20T10:52:14.831Z,22.60
2022-08-20T10:54:43.590Z,22.30
2022-08-20T10:57:15.932Z,22.70
2022-08-20T10:59:46.162Z,21.70
2022-08-20T11:02:16.447Z,21.90
2022-08-20T11:04:45.683Z,21.60
2022-08-20T11:07:16.463Z,22.00
2022-08-20T11:09:45.947Z,22.20
2022-08-20T11:12:14.507Z,22.30
2022-08-20T11:14:42.919Z,22.10
2022-08-20T11:17:11.758Z,22.60
2022-08-20T11:19:42.810Z,22.30
2022-08-20T11:22:11.757Z,22.00
2022-08-20T11:24:40.381Z,22.00
2022-08-20T11:27:09.789Z,22.40
2022-08-20T11:29:38.867Z,22.40
2022-08-20T11:32:07.662Z,22.30
2022-08-20T11:34:36.432Z,21.90
2022-08-20T11:37:06.254Z,21.70
2022-08-20T11:39:39.782Z,21.60
2022-08-20T11:42:09.694Z,21.80
2022-08-20T11:44:38.032Z,22.40
2022-08-20T11:47:07.629Z,23.10
2022-08-20T11:49:37.569Z,22.90
2022-08-20T11:52:07.637Z,23.20
2022-08-20T11:54:40.427Z,23.30
2022-08-20T11:57:09.176Z,22.90
2022-08-20T11:59:37.623Z,23.00
2022-08-20T12:02:10.241Z,22.50
2022-08-20T12:04:41.164Z,22.20
2022-08-20T12:07:11.752Z,22.30
2022-08-20T12:09:41.911Z,22.70
2022-08-20T12:12:19.629Z,23.10
2022-08-20T12:14:48.875Z,23.20
2022-08-20T12:17:24.019Z,22.70
2022-08-20T12:19:53.433Z,22.40
2022-08-20T12:22:25.202Z,22.10
2022-08-20T12:24:54.306Z,22.50
2022-08-20T12:27:24.375Z,23.10
2022-08-20T12:29:53.990Z,22.90
2022-08-20T12:32:22.908Z,22.50
2022-08-20T12:34:51.651Z,22.50
2022-08-20T12:37:25.773Z,22.50
2022-08-20T12:39:56.279Z,22.90
2022-08-20T12:42:25.503Z,22.70
2022-08-20T12:44:53.825Z,22.70
2022-08-20T12:47:24.629Z,22.80
2022-08-20T12:49:55.006Z,22.60
2022-08-20T12:52:26.938Z,22.90
2022-08-20T12:54:56.014Z,22.30
2022-08-20T12:57:28.231Z,22.10
2022-08-20T12:59:56.661Z,22.60
2022-08-20T13:02:27.696Z,22.70
2022-08-20T13:04:56.167Z,22.40
2022-08-20T13:07:28.065Z,22.50
2022-08-20T13:09:56.349Z,22.70
2022-08-20T13:12:24.796Z,23.00
2022-08-20T13:14:53.178Z,22.50
2022-08-20T13:17:38.242Z,22.80
2022-08-20T13:20:10.363Z,22.60
2022-08-20T13:22:40.279Z,23.30
2022-08-20T13:25:10.107Z,23.10
2022-08-20T13:27:39.073Z,22.70
2022-08-20T13:30:11.150Z,23.60
2022-08-20T13:32:39.406Z,23.40
2022-08-20T13:35:08.216Z,23.10
2022-08-20T13:37:36.465Z,22.90
2022-08-20T13:40:08.500Z,22.40
2022-08-20T13:42:37.631Z,23.10
2022-08-20T13:45:06.754Z,23.50
2022-08-20T13:47:36.924Z,23.80
2022-08-20T13:50:08.237Z,23.20
2022-08-20T13:52:37.479Z,22.90
2022-08-20T13:55:09.685Z,22.60
2022-08-20T13:57:38.552Z,22.60
2022-08-20T14:00:09.966Z,22.90
2022-08-20T14:02:38.513Z,23.20
2022-08-20T14:05:07.384Z,23.20
2022-08-20T14:07:36.071Z,22.80
2022-08-20T14:10:09.334Z,23.00
2022-08-20T14:12:38.962Z,22.90
2022-08-20T14:15:09.171Z,22.70
2022-08-20T14:17:41.628Z,23.00
2022-08-20T14:20:12.549Z,23.00
2022-08-20T14:22:41.307Z,23.20
2022-08-20T14:25:13.735Z,22.70
2022-08-20T14:27:42.821Z,22.80
2022-08-20T14:30:13.920Z,23.10
2022-08-20T14:32:43.823Z,23.00
2022-08-20T14:35:13.004Z,23.10
2022-08-20T14:37:42.530Z,23.00
2022-08-20T14:40:15.266Z,23.10
2022-08-20T14:42:47.776Z,23.20
2022-08-20T14:45:24.629Z,23.30
2022-08-20T14:47:54.470Z,23.20
2022-08-20T14:50:25.335Z,23.20
2022-08-20T14:52:54.146Z,23.30
2022-08-20T14:55:25.942Z,23.20
2022-08-20T14:57:54.618Z,23.50
2022-08-20T15:00:26.202Z,23.30
2022-08-20T15:02:55.076Z,23.20
2022-08-20T15:05:23.803Z,23.00
2022-08-20T15:07:54.106Z,22.90
2022-08-20T15:10:26.187Z,23.10
2022-08-20T15:12:54.927Z,23.00
2022-08-20T15:15:24.045Z,22.80
2022-08-20T15:17:54.941Z,22.90
2022-08-20T15:20:25.614Z,22.90
2022-08-20T15:22:54.915Z,23.00
2022-08-20T15:25:26.613Z,22.90
2022-08-20T15:28:00.690Z,23.00
2022-08-20T15:30:31.676Z,23.10
2022-08-20T15:33:00.850Z,23.00
2022-08-20T15:35:30.078Z,23.00
2022-08-20T15:38:00.026Z,23.10
2022-08-20T15:40:32.587Z,23.50
2022-08-20T15:43:04.115Z,23.50
2022-08-20T15:45:33.031Z,23.30
2022-08-20T15:48:09.307Z,23.30
2022-08-20T15:51:11.984Z,23.10
2022-08-20T15:53:58.183Z,23.10
2022-08-20T15:56:45.178Z,22.70
2022-08-20T15:59:23.776Z,22.90
2022-08-20T16:02:02.404Z,22.90
2022-08-20T16:04:53.819Z,22.80
2022-08-20T16:07:29.647Z,22.90
2022-08-20T16:10:15.643Z,23.10
2022-08-20T16:12:50.805Z,23.40
2022-08-20T16:15:24.821Z,23.40
2022-08-20T16:18:02.150Z,23.10
2022-08-20T16:20:36.075Z,22.70
2022-08-20T16:23:04.902Z,23.20
2022-08-20T16:25:40.400Z,23.20
2022-08-20T16:28:21.642Z,23.40
2022-08-20T16:30:53.562Z,23.30
2022-08-20T16:33:29.862Z,23.30
2022-08-20T16:36:04.410Z,23.30
2022-08-20T16:38:41.688Z,23.30
2022-08-20T16:41:14.910Z,23.30
2022-08-20T16:43:52.054Z,23.30
2022-08-20T16:46:22.531Z,23.40
2022-08-20T16:48:56.041Z,23.40
2022-08-20T16:51:34.566Z,23.60
2022-08-20T16:54:02.951Z,23.50
2022-08-20T16:56:35.988Z,23.70
2022-08-20T16:59:07.989Z,23.60
2022-08-20T17:01:36.878Z,23.60
2022-08-20T17:04:06.851Z,23.70
2022-08-20T17:06:39.749Z,23.60
2022-08-20T17:09:11.955Z,23.40
2022-08-20T17:11:41.095Z,23.50
2022-08-20T17:14:13.358Z,23.50
2022-08-20T17:16:46.114Z,23.30
2022-08-20T17:19:19.615Z,23.70
2022-08-20T17:21:50.763Z,23.50
2022-08-20T17:24:26.323Z,23.10
2022-08-20T17:27:00.229Z,23.30
2022-08-20T17:29:31.903Z,23.50
2022-08-20T17:32:01.473Z,23.20
2022-08-20T17:34:32.219Z,23.20
2022-08-20T17:37:12.104Z,23.10
2022-08-20T17:39:48.086Z,23.20
2022-08-20T17:42:19.693Z,23.40
2022-08-20T17:44:55.534Z,23.30
2022-08-20T17:47:30.245Z,23.50
2022-08-20T17:50:04.185Z,23.20
2022-08-20T17:52:40.385Z,23.20
2022-08-20T17:55:10.852Z,23.10
2022-08-20T17:57:41.188Z,23.50
2022-08-20T18:00:15.362Z,23.30
2022-08-20T18:02:44.636Z,22.90
2022-08-20T18:05:19.205Z,23.20
2022-08-20T18:08:06.895Z,23.00
2022-08-20T18:10:42.056Z,23.80
2022-08-20T18:13:19.405Z,23.70
2022-08-20T18:15:55.082Z,23.40
2022-08-20T18:18:34.635Z,23.30
2022-08-20T18:21:41.487Z,24.00
2022-08-20T18:24:13.675Z,23.20
2022-08-20T18:26:47.642Z,23.70
2022-08-20T18:29:21.053Z,23.70
2022-08-20T18:31:56.365Z,23.50
2022-08-20T18:34:38.968Z,23.40
2022-08-20T18:37:21.234Z,23.60
2022-08-20T18:39:51.448Z,24.00
2022-08-20T18:42:31.212Z,23.80
2022-08-20T18:45:00.313Z,23.70
2022-08-20T18:47:40.312Z,23.70
2022-08-20T18:50:19.409Z,23.50
2022-08-20T18:52:49.770Z,23.70
2022-08-20T18:55:31.346Z,23.40
2022-08-20T18:58:01.240Z,23.20
2022-08-20T19:00:36.537Z,23.40
2022-08-20T19:03:20.479Z,23.30
2022-08-20T19:06:18.062Z,23.30
2022-08-20T19:08:52.964Z,23.50
2022-08-20T19:11:52.703Z,23.40
2022-08-20T19:14:38.496Z,23.50
2022-08-20T19:17:11.630Z,23.90
2022-08-20T19:19:41.538Z,24.00
2022-08-20T19:22:13.978Z,24.00
2022-08-20T19:24:44.825Z,23.90
2022-08-20T19:27:14.334Z,24.00
2022-08-20T19:29:47.207Z,24.10
2022-08-20T19:32:22.185Z,24.20
2022-08-20T19:34:57.213Z,24.30
2022-08-20T19:37:35.399Z,24.20
2022-08-20T19:40:20.275Z,24.00
2022-08-20T19:42:50.422Z,24.00
2022-08-20T19:45:24.993Z,23.80
2022-08-20T19:48:11.497Z,24.00
2022-08-20T19:50:46.945Z,23.90
2022-08-20T19:53:23.699Z,23.60
2022-08-20T19:56:00.894Z,23.80
2022-08-20T19:58:31.279Z,24.00
2022-08-20T20:01:00.484Z,24.00
2022-08-20T20:03:31.290Z,23.70
2022-08-20T20:06:16.882Z,24.10
2022-08-20T20:08:52.906Z,24.10
2022-08-20T20:11:25.424Z,24.00
2022-08-20T20:13:54.070Z,24.00
2022-08-20T20:16:23.423Z,23.80
2022-08-20T20:19:15.569Z,23.70
2022-08-20T20:21:44.123Z,23.60
2022-08-20T20:24:21.445Z,23.10
2022-08-20T20:26:50.611Z,23.40
2022-08-20T20:29:25.119Z,23.70
2022-08-20T20:31:55.838Z,23.70
2022-08-20T20:34:27.097Z,23.20
2022-08-20T20:37:06.706Z,23.40
2022-08-20T20:39:39.950Z,23.50
2022-08-20T20:42:11.662Z,23.60
2022-08-20T20:44:42.212Z,23.10
2022-08-20T20:47:21.046Z,23.20
2022-08-20T20:49:52.385Z,23.30
2022-08-20T20:52:25.079Z,23.20
2022-08-20T20:55:05.195Z,23.20
2022-08-20T20:57:37.810Z,22.50
2022-08-20T21:00:10.469Z,21.60
2022-08-20T21:02:39.363Z,21.20
2022-08-20T21:05:08.486Z,21.00
2022-08-20T21:07:46.241Z,20.80
2022-08-20T21:10:22.340Z,20.70
2022-08-20T21:12:57.331Z,20.60
2022-08-20T21:15:27.486Z,20.50
2022-08-20T21:17:56.009Z,20.40
2022-08-20T21:20:24.319Z,20.20
2022-08-20T21:22:54.676Z,20.20
2022-08-20T21:25:23.203Z,20.10
2022-08-20T21:27:55.305Z,20.10
2022-08-20T21:30:24.945Z,20.10
2022-08-20T21:32:53.955Z,20.00
2022-08-20T21:35:23.007Z,19.90
2022-08-20T21:37:51.437Z,19.80
2022-08-20T21:40:22.073Z,19.80
2022-08-20T21:42:51.306Z,19.80
2022-08-20T21:45:20.211Z,19.60
2022-08-20T21:47:49.252Z,19.50
2022-08-20T21:50:19.610Z,19.50
2022-08-20T21:52:55.073Z,19.40
2022-08-20T21:55:35.148Z,19.40
2022-08-20T21:58:07.480Z,19.30
2022-08-20T22:00:53.169Z,19.30
2022-08-20T22:03:23.511Z,19.20
2022-08-20T22:05:52.319Z,19.10
2022-08-20T22:08:21.848Z,19.00
2022-08-20T22:10:57.273Z,18.90
2022-08-20T22:13:28.229Z,18.90
2022-08-20T22:15:56.656Z,18.80
2022-08-20T22:18:24.912Z,18.70
2022-08-20T22:20:53.638Z,18.60
2022-08-20T22:23:22.438Z,18.60
2022-08-20T22:25:51.256Z,18.50
2022-08-20T22:28:21.272Z,18.50
2022-08-20T22:30:49.924Z,18.40
2022-08-20T22:33:21.815Z,18.40
2022-08-20T22:35:51.620Z,18.40
2022-08-20T22:38:20.465Z,18.40
2022-08-20T22:40:49.261Z,18.30
2022-08-20T22:43:18.226Z,18.20
2022-08-20T22:45:49.985Z,18.20
2022-08-20T22:48:20.712Z,18.10
2022-08-20T22:50:50.021Z,18.00
2022-08-20T22:53:20.009Z,18.00
2022-08-20T22:55:48.680Z,18.00
2022-08-20T22:58:17.282Z,18.00
2022-08-20T23:00:48.508Z,17.90
2022-08-20T23:03:22.680Z,17.90
2022-08-20T23:06:10.116Z,17.80
2022-08-20T23:08:40.140Z,17.80
2022-08-20T23:11:08.573Z,17.80
2022-08-20T23:13:42.654Z,17.80
2022-08-20T23:16:17.333Z,17.80
2022-08-20T23:18:46.039Z,17.80
2022-08-20T23:21:14.479Z,17.90
2022-08-20T23:23:43.118Z,17.80
2022-08-20T23:26:13.396Z,17.80
2022-08-20T23:28:41.848Z,17.90
2022-08-20T23:31:15.078Z,17.80
2022-08-20T23:33:44.923Z,17.90
2022-08-20T23:36:15.716Z,17.80
2022-08-20T23:38:44.036Z,17.80
2022-08-20T23:41:12.459Z,17.70
2022-08-20T23:43:41.134Z,17.80
2022-08-20T23:46:09.880Z,17.70
2022-08-20T23:48:39.591Z,17.70
2022-08-20T23:51:08.482Z,17.70
2022-08-20T23:53:36.928Z,17.70
2022-08-20T23:56:05.638Z,17.70
2022-08-20T23:58:33.941Z,17.60
